sensor_id;sensor_type;location;lat;lon;timestamp;P1;durP1;ratioP1;P2;durP2;ratioP2
50709;SDS011;37033;49.994;21.992;2023-05-10T00:00:02;10.60;;;5.10;;
50709;SDS011;37033;49.994;21.992;2023-05-10T00:02:54;9.00;;;5.20;;
50709;SDS011;37033;49.994;21.992;2023-05-10T00:05:25;8.70;;;4.70;;
50709;SDS011;37033;49.994;21.992;2023-05-10T00:07:55;10.80;;;4.20;;
50709;SDS011;37033;49.994;21.992;2023-05-10T00:10:26;7.50;;;4.90;;
50709;SDS011;37033;49.994;21.992;2023-05-10T00:12:57;10.40;;;5.50;;
50709;SDS011;37033;49.994;21.992;2023-05-10T00:15:27;8.50;;;5.20;;
50709;SDS011;37033;49.994;21.992;2023-05-10T00:17:59;12.70;;;5.30;;
50709;SDS011;37033;49.994;21.992;2023-05-10T00:20:29;9.00;;;4.50;;
50709;SDS011;37033;49.994;21.992;2023-05-10T00:23:00;11.70;;;5.10;;
50709;SDS011;37033;49.994;21.992;2023-05-10T00:25:31;6.50;;;4.60;;
50709;SDS011;37033;49.994;21.992;2023-05-10T00:28:01;10.50;;;5.30;;
50709;SDS011;37033;49.994;21.992;2023-05-10T00:30:32;6.10;;;4.80;;
50709;SDS011;37033;49.994;21.992;2023-05-10T00:33:03;7.10;;;4.40;;
50709;SDS011;37033;49.994;21.992;2023-05-10T00:35:34;7.50;;;4.20;;
50709;SDS011;37033;49.994;21.992;2023-05-10T00:38:05;7.30;;;4.40;;
50709;SDS011;37033;49.994;21.992;2023-05-10T00:40:36;11.00;;;5.50;;
50709;SDS011;37033;49.994;21.992;2023-05-10T00:43:07;5.90;;;4.70;;
50709;SDS011;37033;49.994;21.992;2023-05-10T00:45:38;8.90;;;4.80;;
50709;SDS011;37033;49.994;21.992;2023-05-10T00:48:10;9.30;;;4.90;;
50709;SDS011;37033;49.994;21.992;2023-05-10T00:50:41;20.00;;;5.50;;
50709;SDS011;37033;49.994;21.992;2023-05-10T00:53:12;11.30;;;5.30;;
50709;SDS011;37033;49.994;21.992;2023-05-10T00:55:43;6.30;;;4.30;;
50709;SDS011;37033;49.994;21.992;2023-05-10T00:58:14;14.10;;;5.00;;
50709;SDS011;37033;49.994;21.992;2023-05-10T01:00:44;7.60;;;4.20;;
50709;SDS011;37033;49.994;21.992;2023-05-10T01:03:17;11.40;;;5.20;;
50709;SDS011;37033;49.994;21.992;2023-05-10T01:05:48;10.50;;;4.10;;
50709;SDS011;37033;49.994;21.992;2023-05-10T01:08:18;11.70;;;5.00;;
50709;SDS011;37033;49.994;21.992;2023-05-10T01:10:49;9.50;;;5.00;;
50709;SDS011;37033;49.994;21.992;2023-05-10T01:13:26;12.10;;;5.50;;
50709;SDS011;37033;49.994;21.992;2023-05-10T01:16:02;8.00;;;5.10;;
50709;SDS011;37033;49.994;21.992;2023-05-10T01:18:35;6.10;;;4.70;;
50709;SDS011;37033;49.994;21.992;2023-05-10T01:21:14;7.70;;;5.40;;
50709;SDS011;37033;49.994;21.992;2023-05-10T01:26:52;7.90;;;5.60;;
50709;SDS011;37033;49.994;21.992;2023-05-10T01:29:55;11.00;;;4.80;;
50709;SDS011;37033;49.994;21.992;2023-05-10T01:32:51;9.70;;;5.10;;
50709;SDS011;37033;49.994;21.992;2023-05-10T01:35:31;8.90;;;5.40;;
50709;SDS011;37033;49.994;21.992;2023-05-10T01:38:10;8.80;;;5.40;;
50709;SDS011;37033;49.994;21.992;2023-05-10T01:40:48;12.00;;;6.40;;
50709;SDS011;37033;49.994;21.992;2023-05-10T01:43:28;8.30;;;4.70;;
50709;SDS011;37033;49.994;21.992;2023-05-10T01:46:07;10.00;;;5.30;;
50709;SDS011;37033;49.994;21.992;2023-05-10T01:48:45;9.70;;;5.60;;
50709;SDS011;37033;49.994;21.992;2023-05-10T01:51:21;8.80;;;4.70;;
50709;SDS011;37033;49.994;21.992;2023-05-10T01:53:57;7.10;;;4.90;;
50709;SDS011;37033;49.994;21.992;2023-05-10T01:56:31;9.00;;;4.80;;
50709;SDS011;37033;49.994;21.992;2023-05-10T01:59:04;6.60;;;4.40;;
50709;SDS011;37033;49.994;21.992;2023-05-10T02:01:39;9.00;;;4.80;;
50709;SDS011;37033;49.994;21.992;2023-05-10T02:04:11;14.10;;;5.80;;
50709;SDS011;37033;49.994;21.992;2023-05-10T02:06:46;5.10;;;4.10;;
50709;SDS011;37033;49.994;21.992;2023-05-10T02:09:19;6.20;;;4.70;;
50709;SDS011;37033;49.994;21.992;2023-05-10T02:11:51;6.10;;;4.60;;
50709;SDS011;37033;49.994;21.992;2023-05-10T02:14:24;8.80;;;5.70;;
50709;SDS011;37033;49.994;21.992;2023-05-10T02:16:56;13.30;;;6.80;;
50709;SDS011;37033;49.994;21.992;2023-05-10T02:19:30;10.50;;;6.50;;
50709;SDS011;37033;49.994;21.992;2023-05-10T02:22:03;7.60;;;5.10;;
50709;SDS011;37033;49.994;21.992;2023-05-10T02:24:35;12.60;;;6.20;;
50709;SDS011;37033;49.994;21.992;2023-05-10T02:27:07;11.00;;;7.20;;
50709;SDS011;37033;49.994;21.992;2023-05-10T02:29:40;12.90;;;7.40;;
50709;SDS011;37033;49.994;21.992;2023-05-10T02:32:11;12.30;;;7.20;;
50709;SDS011;37033;49.994;21.992;2023-05-10T02:34:43;11.50;;;8.90;;
50709;SDS011;37033;49.994;21.992;2023-05-10T02:37:19;13.10;;;8.00;;
50709;SDS011;37033;49.994;21.992;2023-05-10T02:39:51;13.00;;;8.00;;
50709;SDS011;37033;49.994;21.992;2023-05-10T02:42:25;13.00;;;7.60;;
50709;SDS011;37033;49.994;21.992;2023-05-10T02:44:59;12.80;;;8.10;;
50709;SDS011;37033;49.994;21.992;2023-05-10T02:47:34;14.80;;;8.20;;
50709;SDS011;37033;49.994;21.992;2023-05-10T02:50:05;13.50;;;7.60;;
50709;SDS011;37033;49.994;21.992;2023-05-10T02:52:39;13.90;;;7.50;;
50709;SDS011;37033;49.994;21.992;2023-05-10T02:55:14;21.30;;;9.30;;
50709;SDS011;37033;49.994;21.992;2023-05-10T02:57:48;15.30;;;8.80;;
50709;SDS011;37033;49.994;21.992;2023-05-10T03:00:25;10.40;;;8.10;;
50709;SDS011;37033;49.994;21.992;2023-05-10T03:02:56;14.90;;;8.20;;
50709;SDS011;37033;49.994;21.992;2023-05-10T03:05:27;15.10;;;8.90;;
50709;SDS011;37033;49.994;21.992;2023-05-10T03:07:58;17.30;;;8.30;;
50709;SDS011;37033;49.994;21.992;2023-05-10T03:10:31;11.00;;;8.30;;
50709;SDS011;37033;49.994;21.992;2023-05-10T03:13:09;14.10;;;9.00;;
50709;SDS011;37033;49.994;21.992;2023-05-10T03:15:49;14.70;;;9.50;;
50709;SDS011;37033;49.994;21.992;2023-05-10T03:18:31;12.70;;;8.50;;
50709;SDS011;37033;49.994;21.992;2023-05-10T03:21:11;15.10;;;9.10;;
50709;SDS011;37033;49.994;21.992;2023-05-10T03:23:46;20.40;;;9.00;;
50709;SDS011;37033;49.994;21.992;2023-05-10T03:26:23;14.00;;;8.40;;
50709;SDS011;37033;49.994;21.992;2023-05-10T03:28:55;16.60;;;8.90;;
50709;SDS011;37033;49.994;21.992;2023-05-10T03:31:28;16.80;;;9.00;;
50709;SDS011;37033;49.994;21.992;2023-05-10T03:33:59;17.10;;;8.20;;
50709;SDS011;37033;49.994;21.992;2023-05-10T03:36:30;13.80;;;8.20;;
50709;SDS011;37033;49.994;21.992;2023-05-10T03:39:00;13.30;;;7.80;;
50709;SDS011;37033;49.994;21.992;2023-05-10T03:41:31;15.70;;;9.50;;
50709;SDS011;37033;49.994;21.992;2023-05-10T03:44:05;16.60;;;8.90;;
50709;SDS011;37033;49.994;21.992;2023-05-10T03:46:35;22.50;;;9.20;;
50709;SDS011;37033;49.994;21.992;2023-05-10T03:49:06;17.30;;;8.50;;
50709;SDS011;37033;49.994;21.992;2023-05-10T03:51:37;20.50;;;11.90;;
50709;SDS011;37033;49.994;21.992;2023-05-10T03:54:07;19.40;;;9.60;;
50709;SDS011;37033;49.994;21.992;2023-05-10T03:56:38;14.60;;;9.00;;
50709;SDS011;37033;49.994;21.992;2023-05-10T03:59:09;13.60;;;9.80;;
50709;SDS011;37033;49.994;21.992;2023-05-10T04:01:40;15.80;;;9.10;;
50709;SDS011;37033;49.994;21.992;2023-05-10T04:04:10;16.90;;;10.00;;
50709;SDS011;37033;49.994;21.992;2023-05-10T04:06:41;14.60;;;8.80;;
50709;SDS011;37033;49.994;21.992;2023-05-10T04:09:12;21.90;;;9.50;;
50709;SDS011;37033;49.994;21.992;2023-05-10T04:11:43;16.80;;;9.30;;
50709;SDS011;37033;49.994;21.992;2023-05-10T04:14:14;16.30;;;8.80;;
50709;SDS011;37033;49.994;21.992;2023-05-10T04:16:45;17.50;;;9.30;;
50709;SDS011;37033;49.994;21.992;2023-05-10T04:19:15;21.20;;;8.70;;
50709;SDS011;37033;49.994;21.992;2023-05-10T04:21:46;13.40;;;9.00;;
50709;SDS011;37033;49.994;21.992;2023-05-10T04:24:17;16.40;;;9.20;;
50709;SDS011;37033;49.994;21.992;2023-05-10T04:26:48;14.50;;;9.20;;
50709;SDS011;37033;49.994;21.992;2023-05-10T04:29:19;13.20;;;8.00;;
50709;SDS011;37033;49.994;21.992;2023-05-10T04:31:50;13.10;;;7.20;;
50709;SDS011;37033;49.994;21.992;2023-05-10T04:34:21;21.20;;;7.20;;
50709;SDS011;37033;49.994;21.992;2023-05-10T04:36:52;13.60;;;6.20;;
50709;SDS011;37033;49.994;21.992;2023-05-10T04:39:22;6.80;;;4.10;;
50709;SDS011;37033;49.994;21.992;2023-05-10T04:41:53;9.40;;;6.10;;
50709;SDS011;37033;49.994;21.992;2023-05-10T04:44:27;17.40;;;4.80;;
50709;SDS011;37033;49.994;21.992;2023-05-10T04:46:58;7.80;;;4.30;;
50709;SDS011;37033;49.994;21.992;2023-05-10T04:49:30;6.10;;;3.50;;
50709;SDS011;37033;49.994;21.992;2023-05-10T04:52:00;7.30;;;3.80;;
50709;SDS011;37033;49.994;21.992;2023-05-10T04:54:31;9.60;;;4.70;;
50709;SDS011;37033;49.994;21.992;2023-05-10T04:57:02;6.60;;;3.70;;
50709;SDS011;37033;49.994;21.992;2023-05-10T04:59:33;7.50;;;3.80;;
50709;SDS011;37033;49.994;21.992;2023-05-10T05:02:05;5.60;;;3.60;;
50709;SDS011;37033;49.994;21.992;2023-05-10T05:04:36;6.20;;;3.90;;
50709;SDS011;37033;49.994;21.992;2023-05-10T05:07:07;6.80;;;4.60;;
50709;SDS011;37033;49.994;21.992;2023-05-10T05:09:38;6.70;;;3.70;;
50709;SDS011;37033;49.994;21.992;2023-05-10T05:12:09;6.20;;;3.80;;
50709;SDS011;37033;49.994;21.992;2023-05-10T05:14:41;4.10;;;3.30;;
50709;SDS011;37033;49.994;21.992;2023-05-10T05:17:12;6.40;;;3.80;;
50709;SDS011;37033;49.994;21.992;2023-05-10T05:19:43;7.40;;;3.30;;
50709;SDS011;37033;49.994;21.992;2023-05-10T05:22:13;7.60;;;3.00;;
50709;SDS011;37033;49.994;21.992;2023-05-10T05:24:44;6.80;;;3.50;;
50709;SDS011;37033;49.994;21.992;2023-05-10T05:27:15;3.20;;;2.60;;
50709;SDS011;37033;49.994;21.992;2023-05-10T05:29:46;4.90;;;3.00;;
50709;SDS011;37033;49.994;21.992;2023-05-10T05:32:17;4.40;;;2.80;;
50709;SDS011;37033;49.994;21.992;2023-05-10T05:34:50;5.00;;;3.00;;
50709;SDS011;37033;49.994;21.992;2023-05-10T05:37:21;3.30;;;2.70;;
50709;SDS011;37033;49.994;21.992;2023-05-10T05:39:52;3.30;;;2.80;;
50709;SDS011;37033;49.994;21.992;2023-05-10T05:42:23;3.80;;;2.40;;
50709;SDS011;37033;49.994;21.992;2023-05-10T05:44:53;3.10;;;2.50;;
50709;SDS011;37033;49.994;21.992;2023-05-10T05:47:24;5.10;;;2.80;;
50709;SDS011;37033;49.994;21.992;2023-05-10T05:49:55;4.60;;;2.70;;
50709;SDS011;37033;49.994;21.992;2023-05-10T05:52:26;8.90;;;3.10;;
50709;SDS011;37033;49.994;21.992;2023-05-10T05:54:57;2.90;;;2.50;;
50709;SDS011;37033;49.994;21.992;2023-05-10T05:57:27;4.30;;;2.30;;
50709;SDS011;37033;49.994;21.992;2023-05-10T06:00:00;3.90;;;2.50;;
50709;SDS011;37033;49.994;21.992;2023-05-10T06:02:32;2.80;;;2.30;;
50709;SDS011;37033;49.994;21.992;2023-05-10T06:05:03;4.50;;;2.50;;
50709;SDS011;37033;49.994;21.992;2023-05-10T06:07:35;6.80;;;2.50;;
50709;SDS011;37033;49.994;21.992;2023-05-10T06:10:07;4.80;;;2.50;;
50709;SDS011;37033;49.994;21.992;2023-05-10T06:12:38;4.60;;;2.10;;
50709;SDS011;37033;49.994;21.992;2023-05-10T06:15:10;5.00;;;2.00;;
50709;SDS011;37033;49.994;21.992;2023-05-10T06:17:41;3.40;;;2.20;;
50709;SDS011;37033;49.994;21.992;2023-05-10T06:20:12;3.20;;;1.70;;
50709;SDS011;37033;49.994;21.992;2023-05-10T06:22:44;2.10;;;1.80;;
50709;SDS011;37033;49.994;21.992;2023-05-10T06:25:17;2.00;;;1.50;;
50709;SDS011;37033;49.994;21.992;2023-05-10T06:27:49;4.10;;;1.80;;
50709;SDS011;37033;49.994;21.992;2023-05-10T06:30:25;1.80;;;1.50;;
50709;SDS011;37033;49.994;21.992;2023-05-10T06:32:56;1.40;;;1.30;;
50709;SDS011;37033;49.994;21.992;2023-05-10T06:35:27;4.00;;;1.50;;
50709;SDS011;37033;49.994;21.992;2023-05-10T06:37:59;3.00;;;1.40;;
50709;SDS011;37033;49.994;21.992;2023-05-10T06:40:32;2.90;;;1.30;;
50709;SDS011;37033;49.994;21.992;2023-05-10T06:43:03;5.40;;;1.90;;
50709;SDS011;37033;49.994;21.992;2023-05-10T06:45:37;3.30;;;1.40;;
50709;SDS011;37033;49.994;21.992;2023-05-10T06:48:08;4.00;;;1.50;;
50709;SDS011;37033;49.994;21.992;2023-05-10T06:50:39;1.50;;;1.30;;
50709;SDS011;37033;49.994;21.992;2023-05-10T06:53:12;2.00;;;1.40;;
50709;SDS011;37033;49.994;21.992;2023-05-10T06:55:43;3.70;;;1.70;;
50709;SDS011;37033;49.994;21.992;2023-05-10T06:58:14;2.40;;;2.00;;
50709;SDS011;37033;49.994;21.992;2023-05-10T07:00:45;2.50;;;1.30;;
50709;SDS011;37033;49.994;21.992;2023-05-10T07:03:15;3.70;;;1.40;;
50709;SDS011;37033;49.994;21.992;2023-05-10T07:05:46;5.70;;;1.40;;
50709;SDS011;37033;49.994;21.992;2023-05-10T07:08:19;2.00;;;1.40;;
50709;SDS011;37033;49.994;21.992;2023-05-10T07:10:50;2.80;;;1.50;;
50709;SDS011;37033;49.994;21.992;2023-05-10T07:13:21;2.30;;;1.80;;
50709;SDS011;37033;49.994;21.992;2023-05-10T07:15:52;2.00;;;1.20;;
50709;SDS011;37033;49.994;21.992;2023-05-10T07:18:22;1.40;;;1.30;;
50709;SDS011;37033;49.994;21.992;2023-05-10T07:20:53;2.20;;;1.30;;
50709;SDS011;37033;49.994;21.992;2023-05-10T07:23:25;5.10;;;1.50;;
50709;SDS011;37033;49.994;21.992;2023-05-10T07:25:56;1.90;;;1.20;;
50709;SDS011;37033;49.994;21.992;2023-05-10T07:28:27;4.00;;;1.50;;
50709;SDS011;37033;49.994;21.992;2023-05-10T07:30:58;1.50;;;1.30;;
50709;SDS011;37033;49.994;21.992;2023-05-10T07:33:28;1.30;;;1.10;;
50709;SDS011;37033;49.994;21.992;2023-05-10T07:35:59;2.90;;;1.40;;
50709;SDS011;37033;49.994;21.992;2023-05-10T07:38:30;3.60;;;1.40;;
50709;SDS011;37033;49.994;21.992;2023-05-10T07:41:01;2.40;;;1.40;;
50709;SDS011;37033;49.994;21.992;2023-05-10T07:43:35;2.50;;;1.90;;
50709;SDS011;37033;49.994;21.992;2023-05-10T07:46:05;1.80;;;1.40;;
50709;SDS011;37033;49.994;21.992;2023-05-10T07:48:37;2.20;;;1.60;;
50709;SDS011;37033;49.994;21.992;2023-05-10T07:51:08;1.30;;;0.90;;
50709;SDS011;37033;49.994;21.992;2023-05-10T07:53:42;3.70;;;1.20;;
50709;SDS011;37033;49.994;21.992;2023-05-10T07:56:22;3.10;;;1.30;;
50709;SDS011;37033;49.994;21.992;2023-05-10T07:58:55;2.70;;;1.40;;
50709;SDS011;37033;49.994;21.992;2023-05-10T08:01:26;1.70;;;1.20;;
50709;SDS011;37033;49.994;21.992;2023-05-10T08:03:59;3.50;;;1.60;;
50709;SDS011;37033;49.994;21.992;2023-05-10T08:06:30;3.10;;;1.20;;
50709;SDS011;37033;49.994;21.992;2023-05-10T08:09:01;7.00;;;1.40;;
50709;SDS011;37033;49.994;21.992;2023-05-10T08:11:32;4.50;;;1.60;;
50709;SDS011;37033;49.994;21.992;2023-05-10T08:14:03;1.40;;;1.00;;
50709;SDS011;37033;49.994;21.992;2023-05-10T08:16:33;2.50;;;1.30;;
50709;SDS011;37033;49.994;21.992;2023-05-10T08:19:07;3.60;;;1.80;;
50709;SDS011;37033;49.994;21.992;2023-05-10T08:21:38;2.30;;;1.60;;
50709;SDS011;37033;49.994;21.992;2023-05-10T08:24:10;4.10;;;1.30;;
50709;SDS011;37033;49.994;21.992;2023-05-10T08:26:43;4.00;;;1.30;;
50709;SDS011;37033;49.994;21.992;2023-05-10T08:29:13;2.60;;;1.20;;
50709;SDS011;37033;49.994;21.992;2023-05-10T08:31:44;6.40;;;1.50;;
50709;SDS011;37033;49.994;21.992;2023-05-10T08:34:15;3.50;;;1.60;;
50709;SDS011;37033;49.994;21.992;2023-05-10T08:36:49;3.30;;;1.60;;
50709;SDS011;37033;49.994;21.992;2023-05-10T08:39:20;3.90;;;1.50;;
50709;SDS011;37033;49.994;21.992;2023-05-10T08:41:53;2.40;;;1.60;;
50709;SDS011;37033;49.994;21.992;2023-05-10T08:44:30;1.90;;;1.40;;
50709;SDS011;37033;49.994;21.992;2023-05-10T08:47:04;4.80;;;1.70;;
50709;SDS011;37033;49.994;21.992;2023-05-10T08:49:38;2.10;;;1.40;;
50709;SDS011;37033;49.994;21.992;2023-05-10T08:52:15;2.40;;;1.50;;
50709;SDS011;37033;49.994;21.992;2023-05-10T08:54:47;1.80;;;1.20;;
50709;SDS011;37033;49.994;21.992;2023-05-10T08:57:18;2.50;;;1.40;;
50709;SDS011;37033;49.994;21.992;2023-05-10T08:59:49;3.30;;;1.50;;
50709;SDS011;37033;49.994;21.992;2023-05-10T09:02:23;2.40;;;1.40;;
50709;SDS011;37033;49.994;21.992;2023-05-10T09:04:54;2.10;;;1.20;;
50709;SDS011;37033;49.994;21.992;2023-05-10T09:07:25;2.10;;;1.30;;
50709;SDS011;37033;49.994;21.992;2023-05-10T09:09:56;1.80;;;1.30;;
50709;SDS011;37033;49.994;21.992;2023-05-10T09:12:27;2.10;;;1.30;;
50709;SDS011;37033;49.994;21.992;2023-05-10T09:14:58;1.60;;;1.10;;
50709;SDS011;37033;49.994;21.992;2023-05-10T09:17:30;3.70;;;1.50;;
50709;SDS011;37033;49.994;21.992;2023-05-10T09:20:03;4.30;;;1.60;;
50709;SDS011;37033;49.994;21.992;2023-05-10T09:22:35;1.90;;;1.00;;
50709;SDS011;37033;49.994;21.992;2023-05-10T09:25:07;3.70;;;1.20;;
50709;SDS011;37033;49.994;21.992;2023-05-10T09:27:40;1.80;;;1.20;;
50709;SDS011;37033;49.994;21.992;2023-05-10T09:30:16;1.60;;;1.30;;
50709;SDS011;37033;49.994;21.992;2023-05-10T09:32:52;1.30;;;1.00;;
50709;SDS011;37033;49.994;21.992;2023-05-10T09:35:24;1.10;;;0.90;;
50709;SDS011;37033;49.994;21.992;2023-05-10T09:37:57;1.30;;;1.00;;
50709;SDS011;37033;49.994;21.992;2023-05-10T09:40:34;1.70;;;1.10;;
50709;SDS011;37033;49.994;21.992;2023-05-10T09:43:06;2.40;;;1.40;;
50709;SDS011;37033;49.994;21.992;2023-05-10T09:45:38;1.40;;;1.30;;
50709;SDS011;37033;49.994;21.992;2023-05-10T09:48:11;3.60;;;1.30;;
50709;SDS011;37033;49.994;21.992;2023-05-10T09:50:42;1.30;;;1.20;;
50709;SDS011;37033;49.994;21.992;2023-05-10T09:53:29;2.70;;;1.30;;
50709;SDS011;37033;49.994;21.992;2023-05-10T09:56:03;1.90;;;1.70;;
50709;SDS011;37033;49.994;21.992;2023-05-10T09:58:36;1.60;;;1.30;;
50709;SDS011;37033;49.994;21.992;2023-05-10T10:01:11;2.10;;;1.50;;
50709;SDS011;37033;49.994;21.992;2023-05-10T10:03:42;3.00;;;1.50;;
50709;SDS011;37033;49.994;21.992;2023-05-10T10:06:16;2.60;;;1.30;;
50709;SDS011;37033;49.994;21.992;2023-05-10T10:08:49;2.40;;;1.30;;
50709;SDS011;37033;49.994;21.992;2023-05-10T10:11:20;4.40;;;1.40;;
50709;SDS011;37033;49.994;21.992;2023-05-10T10:13:52;1.50;;;1.30;;
50709;SDS011;37033;49.994;21.992;2023-05-10T10:16:23;2.30;;;1.80;;
50709;SDS011;37033;49.994;21.992;2023-05-10T10:18:56;1.70;;;1.20;;
50709;SDS011;37033;49.994;21.992;2023-05-10T10:21:27;4.40;;;1.20;;
50709;SDS011;37033;49.994;21.992;2023-05-10T10:23:58;2.20;;;1.40;;
50709;SDS011;37033;49.994;21.992;2023-05-10T10:26:33;2.10;;;1.40;;
50709;SDS011;37033;49.994;21.992;2023-05-10T10:29:08;1.80;;;1.50;;
50709;SDS011;37033;49.994;21.992;2023-05-10T10:31:47;1.70;;;1.30;;
50709;SDS011;37033;49.994;21.992;2023-05-10T10:34:26;1.60;;;1.20;;
50709;SDS011;37033;49.994;21.992;2023-05-10T10:37:03;6.10;;;1.10;;
50709;SDS011;37033;49.994;21.992;2023-05-10T10:39:35;5.40;;;1.70;;
50709;SDS011;37033;49.994;21.992;2023-05-10T10:42:06;1.70;;;1.40;;
50709;SDS011;37033;49.994;21.992;2023-05-10T10:44:37;2.70;;;1.20;;
50709;SDS011;37033;49.994;21.992;2023-05-10T10:47:20;3.30;;;1.50;;
50709;SDS011;37033;49.994;21.992;2023-05-10T10:50:03;1.40;;;1.20;;
50709;SDS011;37033;49.994;21.992;2023-05-10T10:52:37;1.60;;;1.10;;
50709;SDS011;37033;49.994;21.992;2023-05-10T10:55:09;1.70;;;1.20;;
50709;SDS011;37033;49.994;21.992;2023-05-10T10:57:47;1.20;;;1.00;;
50709;SDS011;37033;49.994;21.992;2023-05-10T11:03:00;2.10;;;1.10;;
50709;SDS011;37033;49.994;21.992;2023-05-10T11:05:36;3.50;;;1.20;;
50709;SDS011;37033;49.994;21.992;2023-05-10T11:08:12;3.20;;;1.20;;
50709;SDS011;37033;49.994;21.992;2023-05-10T11:10:52;1.90;;;1.50;;
50709;SDS011;37033;49.994;21.992;2023-05-10T11:13:40;2.30;;;1.40;;
50709;SDS011;37033;49.994;21.992;2023-05-10T11:16:13;1.20;;;1.10;;
50709;SDS011;37033;49.994;21.992;2023-05-10T11:18:57;1.50;;;1.20;;
50709;SDS011;37033;49.994;21.992;2023-05-10T11:21:33;1.70;;;1.20;;
50709;SDS011;37033;49.994;21.992;2023-05-10T11:24:14;1.10;;;1.00;;
50709;SDS011;37033;49.994;21.992;2023-05-10T11:26:48;1.60;;;1.10;;
50709;SDS011;37033;49.994;21.992;2023-05-10T11:29:20;1.70;;;1.10;;
50709;SDS011;37033;49.994;21.992;2023-05-10T11:31:55;3.10;;;1.10;;
50709;SDS011;37033;49.994;21.992;2023-05-10T11:34:28;1.50;;;1.20;;
50709;SDS011;37033;49.994;21.992;2023-05-10T11:37:01;1.80;;;1.40;;
50709;SDS011;37033;49.994;21.992;2023-05-10T11:39:31;2.30;;;1.10;;
50709;SDS011;37033;49.994;21.992;2023-05-10T11:42:02;1.50;;;1.00;;
50709;SDS011;37033;49.994;21.992;2023-05-10T11:44:36;1.70;;;1.20;;
50709;SDS011;37033;49.994;21.992;2023-05-10T11:47:09;2.40;;;1.10;;
50709;SDS011;37033;49.994;21.992;2023-05-10T11:49:44;1.00;;;0.90;;
50709;SDS011;37033;49.994;21.992;2023-05-10T11:52:20;2.60;;;1.00;;
50709;SDS011;37033;49.994;21.992;2023-05-10T11:54:55;3.00;;;1.20;;
50709;SDS011;37033;49.994;21.992;2023-05-10T11:57:28;1.30;;;1.10;;
50709;SDS011;37033;49.994;21.992;2023-05-10T12:00:05;2.10;;;1.10;;
50709;SDS011;37033;49.994;21.992;2023-05-10T12:02:40;4.20;;;1.30;;
50709;SDS011;37033;49.994;21.992;2023-05-10T12:05:14;2.40;;;1.10;;
50709;SDS011;37033;49.994;21.992;2023-05-10T12:07:45;1.30;;;1.00;;
50709;SDS011;37033;49.994;21.992;2023-05-10T12:10:24;2.30;;;1.30;;
50709;SDS011;37033;49.994;21.992;2023-05-10T12:12:55;4.70;;;1.40;;
50709;SDS011;37033;49.994;21.992;2023-05-10T12:15:26;2.00;;;1.10;;
50709;SDS011;37033;49.994;21.992;2023-05-10T12:17:58;1.50;;;1.10;;
50709;SDS011;37033;49.994;21.992;2023-05-10T12:20:33;3.40;;;1.10;;
50709;SDS011;37033;49.994;21.992;2023-05-10T12:23:04;2.50;;;1.10;;
50709;SDS011;37033;49.994;21.992;2023-05-10T12:25:37;1.80;;;1.00;;
50709;SDS011;37033;49.994;21.992;2023-05-10T12:28:08;2.00;;;1.10;;
50709;SDS011;37033;49.994;21.992;2023-05-10T12:30:39;2.00;;;1.30;;
50709;SDS011;37033;49.994;21.992;2023-05-10T12:33:10;2.40;;;1.10;;
50709;SDS011;37033;49.994;21.992;2023-05-10T12:35:47;4.80;;;1.10;;
50709;SDS011;37033;49.994;21.992;2023-05-10T12:38:28;3.20;;;1.40;;
50709;SDS011;37033;49.994;21.992;2023-05-10T12:41:01;4.20;;;1.30;;
50709;SDS011;37033;49.994;21.992;2023-05-10T12:43:36;1.80;;;1.40;;
50709;SDS011;37033;49.994;21.992;2023-05-10T12:46:07;3.90;;;1.50;;
50709;SDS011;37033;49.994;21.992;2023-05-10T12:48:40;2.30;;;1.40;;
50709;SDS011;37033;49.994;21.992;2023-05-10T12:51:16;2.90;;;1.10;;
50709;SDS011;37033;49.994;21.992;2023-05-10T12:53:49;2.40;;;1.30;;
50709;SDS011;37033;49.994;21.992;2023-05-10T12:56:20;2.30;;;1.50;;
50709;SDS011;37033;49.994;21.992;2023-05-10T12:58:51;4.60;;;1.70;;
50709;SDS011;37033;49.994;21.992;2023-05-10T13:01:27;3.40;;;1.40;;
50709;SDS011;37033;49.994;21.992;2023-05-10T13:03:57;1.30;;;1.20;;
50709;SDS011;37033;49.994;21.992;2023-05-10T13:06:31;1.60;;;1.30;;
50709;SDS011;37033;49.994;21.992;2023-05-10T13:09:02;4.10;;;1.30;;
50709;SDS011;37033;49.994;21.992;2023-05-10T13:11:33;5.40;;;1.20;;
50709;SDS011;37033;49.994;21.992;2023-05-10T13:14:07;1.20;;;1.00;;
50709;SDS011;37033;49.994;21.992;2023-05-10T13:16:43;1.50;;;1.30;;
50709;SDS011;37033;49.994;21.992;2023-05-10T13:19:14;1.60;;;1.10;;
50709;SDS011;37033;49.994;21.992;2023-05-10T13:21:45;4.70;;;1.20;;
50709;SDS011;37033;49.994;21.992;2023-05-10T13:24:19;2.50;;;1.40;;
50709;SDS011;37033;49.994;21.992;2023-05-10T13:26:50;2.50;;;1.10;;
50709;SDS011;37033;49.994;21.992;2023-05-10T13:29:23;2.50;;;1.60;;
50709;SDS011;37033;49.994;21.992;2023-05-10T13:31:57;1.80;;;1.10;;
50709;SDS011;37033;49.994;21.992;2023-05-10T13:34:30;5.50;;;1.30;;
50709;SDS011;37033;49.994;21.992;2023-05-10T13:37:01;1.80;;;1.10;;
50709;SDS011;37033;49.994;21.992;2023-05-10T13:39:32;1.70;;;1.10;;
50709;SDS011;37033;49.994;21.992;2023-05-10T13:42:07;1.90;;;1.30;;
50709;SDS011;37033;49.994;21.992;2023-05-10T13:44:38;3.10;;;1.30;;
50709;SDS011;37033;49.994;21.992;2023-05-10T13:47:12;3.10;;;1.30;;
50709;SDS011;37033;49.994;21.992;2023-05-10T13:49:48;4.30;;;1.20;;
50709;SDS011;37033;49.994;21.992;2023-05-10T13:52:25;2.60;;;1.50;;
50709;SDS011;37033;49.994;21.992;2023-05-10T13:54:56;2.30;;;1.40;;
50709;SDS011;37033;49.994;21.992;2023-05-10T13:57:27;1.30;;;1.20;;
50709;SDS011;37033;49.994;21.992;2023-05-10T14:00:01;1.50;;;1.40;;
50709;SDS011;37033;49.994;21.992;2023-05-10T14:05:05;3.20;;;1.60;;
50709;SDS011;37033;49.994;21.992;2023-05-10T14:07:39;5.00;;;2.00;;
50709;SDS011;37033;49.994;21.992;2023-05-10T14:10:12;2.00;;;1.20;;
50709;SDS011;37033;49.994;21.992;2023-05-10T14:12:49;2.40;;;1.50;;
50709;SDS011;37033;49.994;21.992;2023-05-10T14:15:20;4.30;;;1.30;;
50709;SDS011;37033;49.994;21.992;2023-05-10T14:17:53;3.90;;;1.50;;
50709;SDS011;37033;49.994;21.992;2023-05-10T14:20:24;2.10;;;1.30;;
50709;SDS011;37033;49.994;21.992;2023-05-10T14:22:58;3.20;;;1.30;;
50709;SDS011;37033;49.994;21.992;2023-05-10T14:25:31;2.20;;;1.30;;
50709;SDS011;37033;49.994;21.992;2023-05-10T14:28:02;2.60;;;1.40;;
50709;SDS011;37033;49.994;21.992;2023-05-10T14:30:33;4.70;;;1.50;;
50709;SDS011;37033;49.994;21.992;2023-05-10T14:33:07;3.60;;;1.30;;
50709;SDS011;37033;49.994;21.992;2023-05-10T14:35:38;5.60;;;1.50;;
50709;SDS011;37033;49.994;21.992;2023-05-10T14:38:09;2.10;;;1.40;;
50709;SDS011;37033;49.994;21.992;2023-05-10T14:40:40;2.00;;;1.20;;
50709;SDS011;37033;49.994;21.992;2023-05-10T14:43:18;4.00;;;1.60;;
50709;SDS011;37033;49.994;21.992;2023-05-10T14:45:52;2.00;;;1.10;;
50709;SDS011;37033;49.994;21.992;2023-05-10T14:48:26;2.50;;;1.50;;
50709;SDS011;37033;49.994;21.992;2023-05-10T14:50:59;2.90;;;1.30;;
50709;SDS011;37033;49.994;21.992;2023-05-10T14:53:31;2.60;;;1.10;;
50709;SDS011;37033;49.994;21.992;2023-05-10T14:56:07;1.90;;;1.30;;
50709;SDS011;37033;49.994;21.992;2023-05-10T14:58:40;2.20;;;1.20;;
50709;SDS011;37033;49.994;21.992;2023-05-10T15:01:12;2.20;;;1.20;;
50709;SDS011;37033;49.994;21.992;2023-05-10T15:03:42;2.40;;;1.10;;
50709;SDS011;37033;49.994;21.992;2023-05-10T15:06:29;3.10;;;1.40;;
50709;SDS011;37033;49.994;21.992;2023-05-10T15:09:04;1.60;;;0.90;;
50709;SDS011;37033;49.994;21.992;2023-05-10T15:11:35;2.60;;;1.10;;